createdAt,value
2023-12-03T00:00:06.990Z,-1.72
2023-12-03T00:02:34.859Z,-1.62
2023-12-03T00:05:04.339Z,-1.64
2023-12-03T00:07:33.135Z,-1.65
2023-12-03T00:10:00.129Z,-1.67
2023-12-03T00:12:27.021Z,-1.52
2023-12-03T00:14:53.951Z,-1.47
2023-12-03T00:17:20.751Z,-1.58
2023-12-03T00:19:47.659Z,-1.52
2023-12-03T00:22:15.181Z,-1.62
2023-12-03T00:24:42.436Z,-1.57
2023-12-03T00:27:09.154Z,-1.56
2023-12-03T00:29:35.748Z,-1.58
2023-12-03T00:32:02.393Z,-1.52
2023-12-03T00:34:29.106Z,-1.50
2023-12-03T00:36:56.125Z,-1.57
2023-12-03T00:39:22.722Z,-1.55
2023-12-03T00:41:49.282Z,-1.54
2023-12-03T00:44:16.169Z,-1.52
2023-12-03T00:46:43.964Z,-1.60
2023-12-03T00:49:11.715Z,-1.53
2023-12-03T00:51:38.667Z,-1.52
2023-12-03T00:54:05.461Z,-1.46
2023-12-03T00:56:32.536Z,-1.53
2023-12-03T00:58:59.055Z,-1.46
2023-12-03T01:01:27.994Z,-1.53
2023-12-03T01:03:54.572Z,-1.52
2023-12-03T01:06:21.085Z,-1.46
2023-12-03T01:08:48.005Z,-1.50
2023-12-03T01:11:15.019Z,-1.47
2023-12-03T01:13:43.049Z,-1.48
2023-12-03T01:16:18.221Z,-1.53
2023-12-03T01:18:45.784Z,-1.60
2023-12-03T01:21:12.689Z,-1.41
2023-12-03T01:23:39.517Z,-1.41
2023-12-03T01:26:06.942Z,-1.46
2023-12-03T01:28:33.660Z,-1.44
2023-12-03T01:31:07.497Z,-1.50
2023-12-03T01:33:34.885Z,-1.57
2023-12-03T01:36:02.498Z,-1.73
2023-12-03T01:38:29.631Z,-1.75
2023-12-03T01:40:56.514Z,-1.82
2023-12-03T01:43:23.740Z,-1.77
2023-12-03T01:45:50.391Z,-1.59
2023-12-03T01:48:17.698Z,-1.74
2023-12-03T01:50:47.316Z,-1.75
2023-12-03T01:53:17.210Z,-1.71
2023-12-03T01:55:44.790Z,-1.85
2023-12-03T01:58:11.258Z,-1.80
2023-12-03T02:00:39.620Z,-1.86
2023-12-03T02:03:06.696Z,-1.82
2023-12-03T02:05:33.494Z,-1.85
2023-12-03T02:08:02.003Z,-1.95
2023-12-03T02:10:28.812Z,-1.97
2023-12-03T02:12:59.202Z,-1.98
2023-12-03T02:15:25.898Z,-2.27
2023-12-03T02:17:53.161Z,-2.33
2023-12-03T02:20:19.958Z,-2.23
2023-12-03T02:23:03.103Z,-2.19
2023-12-03T02:25:29.875Z,-2.21
2023-12-03T02:27:57.509Z,-2.28
2023-12-03T02:30:24.214Z,-2.25
2023-12-03T02:32:51.217Z,-2.23
2023-12-03T02:35:18.236Z,-2.45
2023-12-03T02:37:45.283Z,-2.56
2023-12-03T02:40:12.190Z,-2.58
2023-12-03T02:42:39.094Z,-2.55
2023-12-03T02:45:08.981Z,-2.62
2023-12-03T02:47:36.210Z,-2.66
2023-12-03T02:50:04.380Z,-2.61
2023-12-03T02:52:31.533Z,-2.56
2023-12-03T02:54:58.163Z,-2.57
2023-12-03T02:57:25.147Z,-2.59
2023-12-03T02:59:51.976Z,-2.59
2023-12-03T03:02:18.689Z,-2.54
2023-12-03T03:04:45.365Z,-2.65
2023-12-03T03:07:13.217Z,-2.58
2023-12-03T03:09:40.051Z,-2.60
2023-12-03T03:12:06.979Z,-2.59
2023-12-03T03:14:33.947Z,-2.46
2023-12-03T03:17:00.962Z,-2.46
2023-12-03T03:19:28.751Z,-2.49
2023-12-03T03:21:55.515Z,-2.57
2023-12-03T03:24:22.293Z,-2.64
2023-12-03T03:26:49.180Z,-2.52
2023-12-03T03:29:16.304Z,-2.54
2023-12-03T03:31:43.381Z,-2.53
2023-12-03T03:34:10.096Z,-2.46
2023-12-03T03:36:37.537Z,-2.42
2023-12-03T03:39:04.422Z,-2.48
2023-12-03T03:41:31.123Z,-2.61
2023-12-03T03:43:57.720Z,-2.63
2023-12-03T03:46:24.285Z,-2.48
2023-12-03T03:48:51.420Z,-2.38
2023-12-03T03:51:18.043Z,-2.33
2023-12-03T03:53:44.601Z,-2.37
2023-12-03T03:56:11.808Z,-2.39
2023-12-03T03:58:39.327Z,-2.28
2023-12-03T04:01:08.027Z,-2.35
2023-12-03T04:03:34.688Z,-2.44
2023-12-03T04:06:03.635Z,-2.41
2023-12-03T04:08:30.578Z,-2.40
2023-12-03T04:10:57.554Z,-2.48
2023-12-03T04:13:25.270Z,-2.45
2023-12-03T04:15:52.523Z,-2.31
2023-12-03T04:18:19.043Z,-2.31
2023-12-03T04:20:46.417Z,-2.35
2023-12-03T04:23:13.157Z,-2.32
2023-12-03T04:25:39.826Z,-2.33
2023-12-03T04:28:07.024Z,-2.43
2023-12-03T04:30:34.331Z,-2.39
2023-12-03T04:33:01.063Z,-2.50
2023-12-03T04:35:27.771Z,-2.42
2023-12-03T04:37:54.648Z,-2.34
2023-12-03T04:40:21.246Z,-2.12
2023-12-03T04:42:49.041Z,-2.15
2023-12-03T04:45:16.410Z,-2.25
2023-12-03T04:47:43.387Z,-2.26
2023-12-03T04:50:10.341Z,-2.12
2023-12-03T04:52:37.031Z,-2.09
2023-12-03T04:55:03.985Z,-2.07
2023-12-03T04:57:30.882Z,-1.93
2023-12-03T04:59:58.236Z,-1.91
2023-12-03T05:02:24.750Z,-2.03
2023-12-03T05:04:51.544Z,-2.09
2023-12-03T05:07:18.227Z,-2.21
2023-12-03T05:09:44.869Z,-2.15
2023-12-03T05:12:11.780Z,-2.07
2023-12-03T05:14:38.922Z,-2.11
2023-12-03T05:17:05.533Z,-2.16
2023-12-03T05:19:32.590Z,-2.17
2023-12-03T05:21:59.223Z,-2.19
2023-12-03T05:24:26.064Z,-2.12
2023-12-03T05:26:53.158Z,-2.11
2023-12-03T05:29:23.010Z,-2.03
2023-12-03T05:31:49.631Z,-2.11
2023-12-03T05:34:16.682Z,-2.19
2023-12-03T05:36:44.706Z,-2.16
2023-12-03T05:39:11.273Z,-2.20
2023-12-03T05:41:41.742Z,-2.32
2023-12-03T05:44:08.286Z,-2.36
2023-12-03T05:46:42.723Z,-2.34
2023-12-03T05:49:10.521Z,-2.40
2023-12-03T05:51:37.599Z,-2.35
2023-12-03T05:54:04.518Z,-2.47
2023-12-03T05:56:31.488Z,-2.51
2023-12-03T05:58:58.944Z,-2.56
2023-12-03T06:01:25.959Z,-2.50
2023-12-03T06:03:53.639Z,-2.37
2023-12-03T06:06:20.853Z,-2.48
2023-12-03T06:08:49.393Z,-2.52
2023-12-03T06:11:16.316Z,-2.50
2023-12-03T06:13:43.401Z,-2.51
2023-12-03T06:16:10.982Z,-2.45
2023-12-03T06:18:38.056Z,-2.43
2023-12-03T06:21:04.941Z,-2.36
2023-12-03T06:23:31.911Z,-2.26
2023-12-03T06:26:00.649Z,-2.25
2023-12-03T06:28:27.530Z,-2.29
2023-12-03T06:30:54.204Z,-2.28
2023-12-03T06:33:23.698Z,-2.12
2023-12-03T06:35:51.385Z,-2.12
2023-12-03T06:38:18.306Z,-2.17
2023-12-03T06:40:45.510Z,-2.19
2023-12-03T06:43:12.315Z,-2.17
2023-12-03T06:45:39.013Z,-2.19
2023-12-03T06:48:06.687Z,-2.24
2023-12-03T06:50:34.762Z,-2.21
2023-12-03T06:53:02.448Z,-2.28
2023-12-03T06:55:29.644Z,-2.39
2023-12-03T06:57:56.843Z,-2.38
2023-12-03T07:00:26.999Z,-2.41
2023-12-03T07:02:54.509Z,-2.50
2023-12-03T07:05:21.213Z,-2.51
2023-12-03T07:07:52.338Z,-2.66
2023-12-03T07:10:19.492Z,-2.70
2023-12-03T07:12:46.713Z,-2.89
2023-12-03T07:15:13.488Z,-2.93
2023-12-03T07:17:41.519Z,-2.97
2023-12-03T07:20:09.149Z,-2.91
2023-12-03T07:22:36.323Z,-3.03
2023-12-03T07:25:05.933Z,-3.09
2023-12-03T07:27:33.808Z,-3.19
2023-12-03T07:30:00.440Z,-3.22
2023-12-03T07:32:27.663Z,-3.21
2023-12-03T07:34:54.928Z,-3.15
2023-12-03T07:37:22.133Z,-2.93
2023-12-03T07:39:49.344Z,-2.92
2023-12-03T07:42:16.321Z,-2.90
2023-12-03T07:44:43.700Z,-2.89
2023-12-03T07:47:11.457Z,-3.01
2023-12-03T07:49:38.062Z,-3.05
2023-12-03T07:52:04.987Z,-2.97
2023-12-03T07:54:32.953Z,-3.08
2023-12-03T07:56:59.602Z,-3.10
2023-12-03T07:59:26.551Z,-3.10
2023-12-03T08:01:54.938Z,-3.24
2023-12-03T08:04:21.929Z,-3.22
2023-12-03T08:06:48.873Z,-3.24
2023-12-03T08:09:16.604Z,-3.15
2023-12-03T08:11:43.598Z,-3.15
2023-12-03T08:14:10.185Z,-3.04
2023-12-03T08:16:37.017Z,-3.09
2023-12-03T08:19:03.993Z,-3.05
2023-12-03T08:21:32.986Z,-3.04
2023-12-03T08:23:59.706Z,-3.00
2023-12-03T08:26:28.057Z,-3.05
2023-12-03T08:28:54.889Z,-3.07
2023-12-03T08:31:23.753Z,-3.01
2023-12-03T08:33:51.056Z,-2.95
2023-12-03T08:36:19.587Z,-2.80
2023-12-03T08:38:47.196Z,-2.85
2023-12-03T08:41:13.800Z,-2.69
2023-12-03T08:43:41.028Z,-2.74
2023-12-03T08:46:08.937Z,-2.65
2023-12-03T08:48:36.202Z,-2.68
2023-12-03T08:51:03.023Z,-2.63
2023-12-03T08:53:29.552Z,-2.52
2023-12-03T08:55:59.819Z,-2.40
2023-12-03T08:58:27.429Z,-2.35
2023-12-03T09:00:54.253Z,-2.30
2023-12-03T09:03:21.031Z,-2.26
2023-12-03T09:05:47.760Z,-2.19
2023-12-03T09:08:14.962Z,-2.15
2023-12-03T09:10:41.752Z,-2.19
2023-12-03T09:13:08.355Z,-2.19
2023-12-03T09:15:34.939Z,-1.94
2023-12-03T09:18:01.744Z,-2.02
2023-12-03T09:20:28.248Z,-2.03
2023-12-03T09:22:55.453Z,-1.86
2023-12-03T09:25:22.715Z,-1.82
2023-12-03T09:27:49.858Z,-1.73
2023-12-03T09:30:16.594Z,-1.72
2023-12-03T09:32:43.735Z,-1.66
2023-12-03T09:35:10.331Z,-1.62
2023-12-03T09:37:37.796Z,-1.58
2023-12-03T09:40:05.078Z,-1.45
2023-12-03T09:42:36.921Z,-1.41
2023-12-03T09:45:07.155Z,-1.36
2023-12-03T09:47:38.483Z,-1.29
2023-12-03T09:50:06.018Z,-1.26
2023-12-03T09:52:37.608Z,-1.22
2023-12-03T09:55:05.843Z,-1.18
2023-12-03T09:57:34.616Z,-1.00
2023-12-03T10:00:06.838Z,-0.85
2023-12-03T10:02:37.858Z,-0.55
2023-12-03T10:05:05.077Z,-0.38
2023-12-03T10:07:32.439Z,-0.24
2023-12-03T10:10:01.003Z,0.00
2023-12-03T10:12:39.993Z,-0.02
2023-12-03T10:15:09.532Z,0.20
2023-12-03T10:17:39.226Z,0.35
2023-12-03T10:20:30.099Z,0.46
2023-12-03T10:22:59.563Z,0.38
2023-12-03T10:25:27.545Z,0.48
2023-12-03T10:27:56.131Z,0.77
2023-12-03T10:30:23.323Z,1.06
2023-12-03T10:32:50.990Z,1.15
2023-12-03T10:35:21.392Z,1.48
2023-12-03T10:37:48.893Z,1.71
2023-12-03T10:40:16.186Z,1.52
2023-12-03T10:42:45.092Z,1.42
2023-12-03T10:45:13.897Z,1.30
2023-12-03T10:47:42.516Z,1.29
2023-12-03T10:50:11.680Z,1.10
2023-12-03T10:52:40.582Z,1.08
2023-12-03T10:55:08.426Z,1.23
2023-12-03T10:57:46.428Z,1.58
2023-12-03T11:00:19.045Z,1.65
2023-12-03T11:02:49.555Z,1.83
2023-12-03T11:05:27.059Z,2.62
2023-12-03T11:07:54.545Z,2.85
2023-12-03T11:10:21.383Z,3.18
2023-12-03T11:12:48.821Z,3.11
2023-12-03T11:15:16.209Z,2.59
2023-12-03T11:17:45.581Z,2.43
2023-12-03T11:20:18.502Z,2.41
2023-12-03T11:23:16.312Z,2.39
2023-12-03T11:26:15.527Z,2.25
2023-12-03T11:28:57.331Z,2.16
2023-12-03T11:31:26.846Z,2.21
2023-12-03T11:34:01.678Z,2.58
2023-12-03T11:36:50.595Z,2.85
2023-12-03T11:39:20.782Z,2.96
2023-12-03T11:42:02.609Z,3.60
2023-12-03T11:44:29.316Z,4.27
2023-12-03T11:47:07.552Z,4.34
2023-12-03T11:49:36.776Z,4.13
2023-12-03T11:52:04.584Z,4.39
2023-12-03T11:54:59.724Z,4.65
2023-12-03T11:57:26.301Z,5.48
2023-12-03T11:59:53.424Z,5.07
2023-12-03T12:02:20.145Z,5.57
2023-12-03T12:04:46.842Z,5.01
2023-12-03T12:07:18.220Z,5.15
2023-12-03T12:09:51.442Z,5.89
2023-12-03T12:12:18.817Z,5.34
2023-12-03T12:14:46.409Z,5.97
2023-12-03T12:17:14.057Z,5.37
2023-12-03T12:19:50.914Z,5.19
2023-12-03T12:22:18.316Z,4.30
2023-12-03T12:24:46.200Z,4.69
2023-12-03T12:27:14.267Z,4.53
2023-12-03T12:29:41.823Z,4.37
2023-12-03T12:32:08.636Z,3.68
2023-12-03T12:34:35.703Z,3.57
2023-12-03T12:37:07.012Z,3.15
2023-12-03T12:39:34.994Z,2.89
2023-12-03T12:42:01.823Z,2.48
2023-12-03T12:44:46.646Z,2.51
2023-12-03T12:47:18.031Z,2.37
2023-12-03T12:49:56.370Z,2.52
2023-12-03T12:52:25.517Z,2.11
2023-12-03T12:54:55.237Z,2.01
2023-12-03T12:57:23.044Z,2.06
2023-12-03T12:59:51.684Z,1.77
2023-12-03T13:02:20.541Z,1.83
2023-12-03T13:04:48.065Z,1.84
2023-12-03T13:07:15.235Z,1.81
2023-12-03T13:09:42.299Z,1.81
2023-12-03T13:12:09.840Z,1.63
2023-12-03T13:14:37.336Z,1.68
2023-12-03T13:17:04.503Z,1.66
2023-12-03T13:19:31.346Z,1.54
2023-12-03T13:21:58.726Z,1.47
2023-12-03T13:24:27.471Z,1.36
2023-12-03T13:26:54.658Z,1.33
2023-12-03T13:29:21.709Z,1.28
2023-12-03T13:31:48.324Z,1.24
2023-12-03T13:34:15.040Z,1.26
2023-12-03T13:36:41.804Z,1.33
2023-12-03T13:39:09.162Z,1.36
2023-12-03T13:41:35.816Z,1.11
2023-12-03T13:44:02.423Z,0.98
2023-12-03T13:46:30.265Z,0.68
2023-12-03T13:48:57.307Z,0.65
2023-12-03T13:51:24.028Z,0.65
2023-12-03T13:53:51.664Z,0.57
2023-12-03T13:56:19.271Z,0.49
2023-12-03T13:58:46.322Z,0.57
2023-12-03T14:01:14.650Z,0.50
2023-12-03T14:03:43.812Z,0.50
2023-12-03T14:06:11.756Z,0.64
2023-12-03T14:08:38.805Z,0.79
2023-12-03T14:11:07.611Z,0.79
2023-12-03T14:13:35.279Z,0.80
2023-12-03T14:16:02.308Z,0.67
2023-12-03T14:18:29.189Z,0.57
2023-12-03T14:20:56.701Z,0.56
2023-12-03T14:23:23.188Z,0.53
2023-12-03T14:25:49.920Z,0.48
2023-12-03T14:28:17.168Z,0.47
2023-12-03T14:30:45.691Z,0.48
2023-12-03T14:33:13.114Z,0.46
2023-12-03T14:35:39.931Z,0.54
2023-12-03T14:38:06.929Z,0.50
2023-12-03T14:40:34.544Z,0.52
2023-12-03T14:43:02.301Z,0.43
2023-12-03T14:45:29.248Z,0.41
2023-12-03T14:47:56.822Z,0.36
2023-12-03T14:50:23.424Z,0.31
2023-12-03T14:52:50.360Z,0.41
2023-12-03T14:55:16.893Z,0.41
2023-12-03T14:57:44.236Z,0.49
2023-12-03T15:00:12.357Z,0.42
2023-12-03T15:02:40.064Z,0.41
2023-12-03T15:05:08.067Z,0.39
2023-12-03T15:07:36.631Z,0.42
2023-12-03T15:10:05.106Z,0.38
2023-12-03T15:12:33.922Z,0.38
2023-12-03T15:15:02.401Z,0.43
2023-12-03T15:17:30.922Z,0.30
2023-12-03T15:19:57.699Z,0.32
2023-12-03T15:22:24.637Z,0.33
2023-12-03T15:24:51.544Z,0.29
2023-12-03T15:27:18.271Z,0.34
2023-12-03T15:29:45.013Z,0.25
2023-12-03T15:32:11.545Z,0.20
2023-12-03T15:34:38.308Z,0.30
2023-12-03T15:37:05.250Z,0.27
2023-12-03T15:39:31.918Z,0.24
2023-12-03T15:41:59.529Z,0.10
2023-12-03T15:44:28.511Z,-0.04
2023-12-03T15:46:56.657Z,-0.03
2023-12-03T15:49:23.528Z,-0.11
2023-12-03T15:51:50.391Z,-0.13
2023-12-03T15:54:18.569Z,-0.20
2023-12-03T15:56:45.555Z,-0.09
2023-12-03T15:59:13.384Z,-0.10
2023-12-03T16:01:40.187Z,-0.20
2023-12-03T16:04:07.078Z,-0.10
2023-12-03T16:06:34.386Z,-0.02
2023-12-03T16:09:01.490Z,-0.04
2023-12-03T16:11:28.483Z,-0.13
2023-12-03T16:13:55.185Z,-0.25
2023-12-03T16:16:22.057Z,-0.25
2023-12-03T16:18:48.779Z,-0.26
2023-12-03T16:21:15.892Z,-0.29
2023-12-03T16:23:42.711Z,-0.43
2023-12-03T16:26:09.279Z,-0.41
2023-12-03T16:28:35.885Z,-0.43
2023-12-03T16:31:02.863Z,-0.45
2023-12-03T16:33:30.734Z,-0.46
2023-12-03T16:35:57.728Z,-0.38
2023-12-03T16:38:25.600Z,-0.36
2023-12-03T16:40:52.154Z,-0.36
2023-12-03T16:43:18.777Z,-0.32
2023-12-03T16:45:45.279Z,-0.36
2023-12-03T16:48:12.543Z,-0.29
2023-12-03T16:50:39.574Z,-0.24
2023-12-03T16:53:06.318Z,-0.11
2023-12-03T16:55:33.392Z,-0.11
2023-12-03T16:58:00.466Z,-0.04
2023-12-03T17:00:28.068Z,0.01
2023-12-03T17:02:54.910Z,0.02
2023-12-03T17:05:22.044Z,0.02
2023-12-03T17:07:49.034Z,0.08
2023-12-03T17:10:15.744Z,-0.03
2023-12-03T17:12:47.653Z,-0.02
2023-12-03T17:15:21.804Z,0.03
2023-12-03T17:17:48.595Z,0.11
2023-12-03T17:20:15.906Z,0.19
2023-12-03T17:22:42.769Z,0.17
2023-12-03T17:25:09.702Z,0.13
2023-12-03T17:27:36.300Z,0.24
2023-12-03T17:30:02.999Z,0.26
2023-12-03T17:32:30.286Z,0.24
2023-12-03T17:34:57.585Z,0.20
2023-12-03T17:37:24.533Z,0.26
2023-12-03T17:39:51.414Z,0.17
2023-12-03T17:42:17.987Z,0.15
2023-12-03T17:44:45.086Z,0.17
2023-12-03T17:47:12.948Z,-0.01
2023-12-03T17:49:40.209Z,-0.04
2023-12-03T17:52:07.984Z,-0.04
2023-12-03T17:54:36.182Z,-0.16
2023-12-03T17:57:02.705Z,-0.22
2023-12-03T17:59:29.565Z,-0.22
2023-12-03T18:01:56.470Z,-0.37
2023-12-03T18:04:23.549Z,-0.51
2023-12-03T18:06:50.388Z,-0.56
2023-12-03T18:09:16.930Z,-0.53
2023-12-03T18:11:44.924Z,-0.52
2023-12-03T18:14:12.009Z,-0.53
2023-12-03T18:16:39.556Z,-0.42
2023-12-03T18:19:06.432Z,-0.43
2023-12-03T18:21:35.367Z,-0.37
2023-12-03T18:24:02.624Z,-0.32
2023-12-03T18:26:29.647Z,-0.30
2023-12-03T18:28:57.317Z,-0.25
2023-12-03T18:31:24.409Z,-0.19
2023-12-03T18:33:51.449Z,-0.13
2023-12-03T18:36:19.978Z,-0.11
2023-12-03T18:38:47.555Z,-0.04
2023-12-03T18:41:23.772Z,-0.02
2023-12-03T18:43:50.588Z,-0.02
2023-12-03T18:46:19.103Z,0.02
2023-12-03T18:48:46.660Z,0.02
2023-12-03T18:51:13.383Z,0.10
2023-12-03T18:53:40.085Z,0.07
2023-12-03T18:56:07.493Z,0.12
2023-12-03T18:58:34.932Z,0.08
2023-12-03T19:01:03.512Z,0.10
2023-12-03T19:03:30.299Z,0.14
2023-12-03T19:05:58.085Z,0.11
2023-12-03T19:08:32.790Z,0.11
2023-12-03T19:11:01.120Z,0.04
2023-12-03T19:13:30.448Z,-0.03
2023-12-03T19:15:57.336Z,-0.06
2023-12-03T19:18:25.072Z,-0.05
2023-12-03T19:20:55.437Z,-0.06
2023-12-03T19:23:24.469Z,-0.06
2023-12-03T19:25:51.993Z,-0.02
2023-12-03T19:28:18.691Z,-0.04
2023-12-03T19:30:45.453Z,-0.02
2023-12-03T19:33:12.546Z,0.04
2023-12-03T19:35:39.335Z,-0.03
2023-12-03T19:38:06.529Z,0.00
2023-12-03T19:40:33.936Z,-0.01
2023-12-03T19:43:01.206Z,0.06
2023-12-03T19:45:27.873Z,0.06
2023-12-03T19:47:55.636Z,0.07
2023-12-03T19:50:22.298Z,0.13
2023-12-03T19:52:49.502Z,0.11
2023-12-03T19:55:16.462Z,0.10
2023-12-03T19:57:43.432Z,0.06
2023-12-03T20:00:10.834Z,-0.02
2023-12-03T20:02:37.704Z,0.03
2023-12-03T20:05:04.773Z,-0.06
2023-12-03T20:07:31.635Z,-0.05
2023-12-03T20:09:59.472Z,-0.09
2023-12-03T20:12:31.197Z,-0.09
2023-12-03T20:14:59.106Z,-0.09
2023-12-03T20:17:27.096Z,-0.05
2023-12-03T20:19:53.785Z,-0.10
2023-12-03T20:22:21.637Z,-0.11
2023-12-03T20:24:48.161Z,-0.08
2023-12-03T20:27:14.741Z,-0.12
2023-12-03T20:29:41.617Z,-0.08
2023-12-03T20:32:08.360Z,-0.05
2023-12-03T20:34:35.155Z,-0.04
2023-12-03T20:37:02.257Z,-0.05
2023-12-03T20:39:28.917Z,-0.02
2023-12-03T20:41:55.679Z,-0.10
2023-12-03T20:44:22.900Z,-0.08
2023-12-03T20:46:49.420Z,-0.03
2023-12-03T20:49:16.481Z,0.00
2023-12-03T20:51:43.338Z,0.08
2023-12-03T20:54:10.437Z,0.06
2023-12-03T20:56:37.201Z,0.05
2023-12-03T20:59:04.738Z,0.03
2023-12-03T21:01:31.806Z,0.00
2023-12-03T21:03:58.705Z,-0.04
2023-12-03T21:06:26.386Z,0.00
2023-12-03T21:08:55.238Z,0.00
2023-12-03T21:11:21.869Z,0.06
2023-12-03T21:13:48.667Z,0.06
2023-12-03T21:16:15.859Z,0.14
2023-12-03T21:18:45.364Z,0.16
2023-12-03T21:21:12.082Z,0.18
2023-12-03T21:23:39.718Z,0.18
2023-12-03T21:26:06.479Z,0.21
2023-12-03T21:28:32.941Z,0.22
2023-12-03T21:30:59.603Z,0.27
2023-12-03T21:33:26.737Z,0.28
2023-12-03T21:35:56.750Z,0.29
2023-12-03T21:38:23.706Z,0.28
2023-12-03T21:40:50.272Z,0.30
2023-12-03T21:43:16.892Z,0.31
2023-12-03T21:45:44.272Z,0.29
2023-12-03T21:48:12.036Z,0.30
2023-12-03T21:50:39.852Z,0.30
2023-12-03T21:53:06.666Z,0.33
2023-12-03T21:55:33.453Z,0.24
2023-12-03T21:58:00.874Z,0.30
2023-12-03T22:00:27.634Z,0.28
2023-12-03T22:02:54.688Z,0.26
2023-12-03T22:05:21.469Z,0.25
2023-12-03T22:07:49.834Z,0.27
2023-12-03T22:10:16.843Z,0.27
2023-12-03T22:12:43.818Z,0.27
2023-12-03T22:15:11.752Z,0.30
2023-12-03T22:17:39.042Z,0.29
2023-12-03T22:20:07.021Z,0.22
2023-12-03T22:22:34.165Z,0.29
2023-12-03T22:25:01.750Z,0.27
2023-12-03T22:27:28.714Z,0.29
2023-12-03T22:30:00.561Z,0.27
2023-12-03T22:32:34.133Z,0.30
2023-12-03T22:35:00.794Z,0.25
2023-12-03T22:37:27.341Z,0.28
2023-12-03T22:39:54.081Z,0.23
2023-12-03T22:42:20.673Z,0.24
2023-12-03T22:44:47.497Z,0.22
2023-12-03T22:47:14.459Z,0.20
2023-12-03T22:49:43.294Z,0.18
2023-12-03T22:52:10.147Z,0.21
2023-12-03T22:54:37.307Z,0.19
2023-12-03T22:57:03.940Z,0.23
2023-12-03T22:59:30.923Z,0.23
2023-12-03T23:01:57.425Z,0.18
2023-12-03T23:04:24.046Z,0.17
2023-12-03T23:06:50.916Z,0.20
2023-12-03T23:09:17.975Z,0.24
2023-12-03T23:11:44.658Z,0.22
2023-12-03T23:14:12.025Z,0.23
2023-12-03T23:16:42.513Z,0.23
2023-12-03T23:19:10.918Z,0.24
2023-12-03T23:21:39.105Z,0.18
2023-12-03T23:24:08.316Z,0.15
2023-12-03T23:26:40.301Z,0.21
2023-12-03T23:29:08.230Z,0.20
2023-12-03T23:31:36.244Z,0.18
2023-12-03T23:34:04.119Z,0.21
2023-12-03T23:36:31.268Z,0.21
2023-12-03T23:38:58.733Z,0.23
2023-12-03T23:41:25.374Z,0.23
2023-12-03T23:43:52.663Z,0.20
2023-12-03T23:46:19.353Z,0.18
2023-12-03T23:48:45.859Z,0.14
2023-12-03T23:51:17.562Z,0.13
2023-12-03T23:53:44.758Z,0.14
2023-12-03T23:56:20.525Z,0.16
2023-12-03T23:58:47.100Z,0.12
